Florence, OR

10:03 AM PST on November 22, 2014 (GMT -0800)
Willow Dunes | Change Station
CLOSE
Current Station
Personal Weather Station
Location: Florence, OR
Elevation: 46 ft
Nearby Weather Stations

Elev 46 ft 43.99 °N, 124.09 °W | Updated 4 seconds ago

Overcast
Overcast
50.9 °F
Feels Like 50.9 °F
N
0.0
Wind Variable Wind from WNW
Gusts 0.0 mph

Today
High -- | Low -- °F
--% Chance of Precip.
Yesterday
High -- | Low -- °F
Precip. -- in
7:20 AM 4:44 PM
New Moon, 0% visible
Pressure 29.95 in
Visibility 7.0 miles
Clouds Scattered Clouds 2200 ft
Scattered Clouds 2900 ft
Mostly Cloudy 5000 ft
Dew Point 50 °F
Humidity 96%
Rainfall 0.13 in
Snow Depth Not available.
UV 0.5 out of 12
Pollen .10 out of 12
Air Quality Not available.
Flu Activity Not available.
METAR KONP 221755Z AUTO 24010G14KT 7SM SCT022 SCT029 BKN050 11/08 A2995 RMK AO2

More Conditions Fewer Conditions

Pressure 29.95 in
Visibility 7.0 miles
Clouds Scattered Clouds 2200 ft
Scattered Clouds 2900 ft
Mostly Cloudy 5000 ft
Dew Point 50 °F
Humidity 96%
Rainfall 0.13 in
Snow Depth Not available.
UV 0.5 out of 12
Pollen .10 out of 12
Air Quality Not available.
Flu Activity Not available.
METAR KONP 221755Z AUTO 24010G14KT 7SM SCT022 SCT029 BKN050 11/08 A2995 RMK AO2

More Conditions Fewer Conditions

10-Day Weather Forecast

Almanac

Astronomy

Nov. 22, 2014 Rise Set
Actual Time
Civil Twilight
Nautical Twilight
Astronomical Twilight
Moon
Length of Visible Light
Length of Day
Tomorrow will be .
, % of the Moon is Illuminated

Today's Extremes

State Highs State Lows

Community

WunderPhotos

Upload Photos

1,772,871 photos uploaded!

WunderBlogs® & News

Nearby

Air Quality

  Air Quality AQ Index Pollutant
Not available.

Snow Depth

Station Depth Elevation

Earthquake Activity

City Distance Mag. Time & Date
Minimum magnitude displayed is 2.5.

Coastal Water Temperatures

Place Temperature

Nearby Weather Stations